createdAt,value
2022-11-20T00:09:13.974Z,10.02
2022-11-20T00:19:15.510Z,9.88
2022-11-20T00:29:17.078Z,10.04
2022-11-20T00:39:18.822Z,10.15
2022-11-20T00:49:20.751Z,10.29
2022-11-20T00:59:22.731Z,10.45
2022-11-20T01:09:24.428Z,10.51
2022-11-20T01:19:26.239Z,10.66
2022-11-20T01:29:27.656Z,10.67
2022-11-20T01:39:29.488Z,10.72
2022-11-20T01:49:56.713Z,10.66
2022-11-20T02:00:03.830Z,10.67
2022-11-20T02:10:05.449Z,10.63
2022-11-20T02:20:07.774Z,10.60
2022-11-20T02:30:11.865Z,10.54
2022-11-20T02:40:13.462Z,10.59
2022-11-20T02:50:15.001Z,10.54
2022-11-20T03:00:16.718Z,10.56
2022-11-20T03:10:18.179Z,10.50
2022-11-20T03:20:19.568Z,10.45
2022-11-20T03:30:21.038Z,10.47
2022-11-20T03:40:22.659Z,10.37
2022-11-20T03:50:24.092Z,10.16
2022-11-20T04:00:25.455Z,10.19
2022-11-20T04:10:26.855Z,10.33
2022-11-20T04:20:28.320Z,10.50
2022-11-20T04:30:29.813Z,10.54
2022-11-20T04:40:31.746Z,10.54
2022-11-20T04:50:34.403Z,10.44
2022-11-20T05:00:35.792Z,10.43
2022-11-20T05:10:37.361Z,10.50
2022-11-20T05:20:38.866Z,10.63
2022-11-20T05:30:40.371Z,10.86
2022-11-20T05:40:41.753Z,10.86
2022-11-20T05:50:43.125Z,10.92
2022-11-20T06:00:44.707Z,10.87
2022-11-20T06:10:46.188Z,11.15
2022-11-20T06:20:47.764Z,11.08
2022-11-20T06:30:49.127Z,11.14
2022-11-20T06:40:50.535Z,11.29
2022-11-20T06:50:51.905Z,11.21
2022-11-20T07:00:53.456Z,11.03
2022-11-20T07:10:58.356Z,10.87
2022-11-20T07:21:08.012Z,10.82
2022-11-20T07:31:11.533Z,10.88
2022-11-20T07:41:16.149Z,11.00
2022-11-20T07:51:17.548Z,11.17
2022-11-20T08:01:19.018Z,11.14
2022-11-20T08:11:38.799Z,11.39
2022-11-20T08:21:40.444Z,11.44
2022-11-20T08:31:41.932Z,11.59
2022-11-20T08:41:43.419Z,11.62
2022-11-20T08:51:45.019Z,11.63
2022-11-20T09:01:46.400Z,11.66
2022-11-20T09:11:47.996Z,11.78
2022-11-20T09:21:49.362Z,11.81
2022-11-20T09:31:55.949Z,11.93
2022-11-20T09:42:20.064Z,12.02
2022-11-20T09:52:34.577Z,12.06
2022-11-20T10:02:38.686Z,12.24
2022-11-20T10:12:52.279Z,12.35
2022-11-20T10:23:15.408Z,12.55
2022-11-20T10:33:18.579Z,12.54
2022-11-20T10:43:23.769Z,12.48
2022-11-20T10:53:39.105Z,12.51
2022-11-20T11:03:40.501Z,12.58
2022-11-20T11:13:41.888Z,12.73
2022-11-20T11:23:43.636Z,12.85
2022-11-20T11:33:45.202Z,12.73
2022-11-20T11:44:13.590Z,12.80
2022-11-20T11:54:24.084Z,12.90
2022-11-20T12:04:43.515Z,13.00
2022-11-20T12:14:46.161Z,13.07
2022-11-20T12:25:13.627Z,13.12
2022-11-20T12:35:40.171Z,13.09
2022-11-20T12:46:06.016Z,13.15
2022-11-20T12:56:32.207Z,13.23
2022-11-20T13:06:33.659Z,13.18
2022-11-20T13:16:39.368Z,13.17
2022-11-20T13:26:42.290Z,13.20
2022-11-20T13:36:52.262Z,13.13
2022-11-20T13:46:54.528Z,13.06
2022-11-20T13:57:33.513Z,13.01
2022-11-20T14:07:40.153Z,13.00
2022-11-20T14:17:41.641Z,12.94
2022-11-20T14:27:44.584Z,12.88
2022-11-20T14:37:46.061Z,12.80
2022-11-20T14:47:47.522Z,12.76
2022-11-20T14:57:55.586Z,12.67
2022-11-20T15:08:08.209Z,12.65
2022-11-20T15:18:17.881Z,12.59
2022-11-20T15:28:30.506Z,12.62
2022-11-20T15:38:31.965Z,12.57
2022-11-20T15:48:36.828Z,12.49
2022-11-20T15:58:38.249Z,12.48
2022-11-20T16:08:39.712Z,12.48
2022-11-20T16:18:41.098Z,12.44
2022-11-20T16:28:42.679Z,12.42
2022-11-20T16:38:44.063Z,12.40
2022-11-20T16:48:45.867Z,12.41
2022-11-20T16:58:51.154Z,12.34
2022-11-20T17:08:53.812Z,12.34
2022-11-20T17:18:59.704Z,12.28
2022-11-20T17:29:05.894Z,12.28
2022-11-20T17:39:07.327Z,12.28
2022-11-20T17:49:11.528Z,12.26
2022-11-20T17:59:13.289Z,12.23
2022-11-20T18:09:15.303Z,12.19
2022-11-20T18:19:18.744Z,12.16
2022-11-20T18:29:20.180Z,12.11
2022-11-20T18:39:21.779Z,12.00
2022-11-20T18:49:23.310Z,12.03
2022-11-20T18:59:24.683Z,12.07
2022-11-20T19:09:26.493Z,12.16
2022-11-20T19:19:29.119Z,12.16
2022-11-20T19:29:30.575Z,12.22
2022-11-20T19:39:32.544Z,12.30
2022-11-20T19:49:34.053Z,12.36
2022-11-20T19:59:35.435Z,12.46
2022-11-20T20:09:36.863Z,12.50
2022-11-20T20:19:38.252Z,12.59
2022-11-20T20:29:39.725Z,12.71
2022-11-20T20:39:41.180Z,12.82
2022-11-20T20:49:43.169Z,12.81
2022-11-20T20:59:44.537Z,12.84
2022-11-20T21:09:45.966Z,12.76
2022-11-20T21:19:47.471Z,12.85
2022-11-20T21:29:48.997Z,12.96
2022-11-20T21:39:51.901Z,13.17
2022-11-20T21:49:53.979Z,13.48
2022-11-20T21:59:55.416Z,13.56
2022-11-20T22:09:56.841Z,13.64
2022-11-20T22:19:58.407Z,13.72
2022-11-20T22:29:59.778Z,13.73
2022-11-20T22:40:03.922Z,13.81
2022-11-20T22:50:05.682Z,13.86
2022-11-20T23:00:08.222Z,13.93
2022-11-20T23:10:09.945Z,13.88
2022-11-20T23:20:11.545Z,13.85
2022-11-20T23:30:13.157Z,13.75
2022-11-20T23:40:14.651Z,13.62
2022-11-20T23:50:16.229Z,13.68
